createdAt,value
2023-08-28T00:01:10.237Z,94.91
2023-08-28T00:03:36.913Z,96.36
2023-08-28T00:06:03.546Z,95.98
2023-08-28T00:08:30.442Z,96.12
2023-08-28T00:10:57.357Z,96.29
2023-08-28T00:13:24.029Z,97.72
2023-08-28T00:15:50.811Z,98.31
2023-08-28T00:18:17.574Z,98.63
2023-08-28T00:20:44.234Z,98.78
2023-08-28T00:23:10.897Z,98.99
2023-08-28T00:25:37.570Z,98.59
2023-08-28T00:28:07.977Z,98.43
2023-08-28T00:30:34.680Z,98.26
2023-08-28T00:33:01.925Z,99.27
2023-08-28T00:35:28.972Z,99.54
2023-08-28T00:37:55.819Z,99.61
2023-08-28T00:40:22.478Z,99.93
2023-08-28T00:42:49.172Z,100.00
2023-08-28T00:45:15.934Z,100.00
2023-08-28T00:47:44.858Z,100.00
2023-08-28T00:50:11.547Z,100.00
2023-08-28T00:52:39.494Z,100.00
2023-08-28T00:55:06.441Z,100.00
2023-08-28T00:57:33.181Z,100.00
2023-08-28T01:00:02.440Z,100.00
2023-08-28T01:02:29.707Z,100.00
2023-08-28T01:04:56.583Z,100.00
2023-08-28T01:07:27.030Z,100.00
2023-08-28T01:10:09.477Z,100.00
2023-08-28T01:12:51.272Z,99.99
2023-08-28T01:15:21.054Z,99.85
2023-08-28T01:17:56.646Z,99.83
2023-08-28T01:20:30.308Z,99.74
2023-08-28T01:23:19.202Z,99.55
2023-08-28T01:25:47.138Z,99.57
2023-08-28T01:28:13.774Z,99.18
2023-08-28T01:30:40.522Z,98.81
2023-08-28T01:33:07.294Z,98.44
2023-08-28T01:35:34.571Z,97.11
2023-08-28T01:38:22.919Z,96.98
2023-08-28T01:41:03.952Z,96.64
2023-08-28T01:43:37.851Z,96.40
2023-08-28T01:46:06.206Z,96.25
2023-08-28T01:48:36.558Z,96.39
2023-08-28T01:51:03.448Z,96.25
2023-08-28T01:53:31.047Z,96.19
2023-08-28T01:55:58.123Z,96.17
2023-08-28T01:58:24.819Z,95.72
2023-08-28T02:00:51.525Z,95.94
2023-08-28T02:03:18.193Z,96.06
2023-08-28T02:05:44.890Z,95.90
2023-08-28T02:08:11.530Z,95.65
2023-08-28T02:10:38.278Z,95.44
2023-08-28T02:13:05.205Z,95.34
2023-08-28T02:15:32.221Z,95.59
2023-08-28T02:17:58.940Z,95.47
2023-08-28T02:20:26.400Z,95.30
2023-08-28T02:22:53.069Z,95.26
2023-08-28T02:25:21.134Z,95.50
2023-08-28T02:27:47.910Z,95.36
2023-08-28T02:30:14.575Z,95.36
2023-08-28T02:32:41.295Z,95.38
2023-08-28T02:35:10.026Z,95.52
2023-08-28T02:37:36.725Z,95.43
2023-08-28T02:40:04.049Z,95.42
2023-08-28T02:42:30.808Z,95.59
2023-08-28T02:44:57.538Z,95.65
2023-08-28T02:47:24.325Z,95.70
2023-08-28T02:49:51.130Z,95.86
2023-08-28T02:52:18.525Z,95.85
2023-08-28T02:54:45.608Z,95.56
2023-08-28T02:57:12.357Z,95.62
2023-08-28T02:59:39.020Z,95.68
2023-08-28T03:02:06.235Z,95.55
2023-08-28T03:04:34.722Z,95.43
2023-08-28T03:07:01.380Z,95.50
2023-08-28T03:09:29.992Z,95.51
2023-08-28T03:11:56.701Z,95.55
2023-08-28T03:14:23.437Z,95.53
2023-08-28T03:16:50.093Z,95.66
2023-08-28T03:19:16.758Z,95.37
2023-08-28T03:21:43.530Z,95.52
2023-08-28T03:24:10.224Z,95.38
2023-08-28T03:26:36.884Z,95.48
2023-08-28T03:29:04.632Z,95.50
2023-08-28T03:31:31.316Z,95.51
2023-08-28T03:34:00.563Z,95.33
2023-08-28T03:36:27.200Z,95.47
2023-08-28T03:38:53.840Z,95.37
2023-08-28T03:41:21.562Z,95.43
2023-08-28T03:43:48.225Z,95.39
2023-08-28T03:46:14.858Z,95.13
2023-08-28T03:48:41.600Z,95.26
2023-08-28T03:51:08.339Z,95.34
2023-08-28T03:53:34.974Z,95.48
2023-08-28T03:56:01.864Z,95.30
2023-08-28T03:58:28.518Z,95.31
2023-08-28T04:00:55.325Z,95.19
2023-08-28T04:03:22.141Z,95.15
2023-08-28T04:05:50.329Z,94.98
2023-08-28T04:08:17.038Z,95.23
2023-08-28T04:10:43.817Z,95.31
2023-08-28T04:13:12.183Z,95.01
2023-08-28T04:15:38.881Z,95.08
2023-08-28T04:18:06.039Z,94.96
2023-08-28T04:20:33.305Z,94.77
2023-08-28T04:23:00.119Z,94.84
2023-08-28T04:25:30.055Z,94.82
2023-08-28T04:27:56.699Z,94.99
2023-08-28T04:30:25.561Z,94.95
2023-08-28T04:32:52.854Z,95.14
2023-08-28T04:35:19.804Z,94.90
2023-08-28T04:37:47.145Z,94.96
2023-08-28T04:40:15.776Z,94.88
2023-08-28T04:42:42.606Z,94.68
2023-08-28T04:45:09.517Z,94.63
2023-08-28T04:47:36.321Z,94.95
2023-08-28T04:50:03.264Z,95.04
2023-08-28T04:52:29.926Z,95.26
2023-08-28T04:54:56.686Z,95.60
2023-08-28T04:57:23.531Z,95.42
2023-08-28T04:59:52.304Z,95.42
2023-08-28T05:02:19.853Z,95.47
2023-08-28T05:04:47.574Z,95.16
2023-08-28T05:07:14.253Z,94.96
2023-08-28T05:09:40.891Z,95.20
2023-08-28T05:12:07.735Z,95.38
2023-08-28T05:14:34.445Z,95.40
2023-08-28T05:17:01.122Z,95.57
2023-08-28T05:19:27.873Z,95.36
2023-08-28T05:21:54.520Z,95.53
2023-08-28T05:24:21.257Z,95.64
2023-08-28T05:26:47.894Z,95.73
2023-08-28T05:29:14.644Z,95.43
2023-08-28T05:31:41.485Z,95.72
2023-08-28T05:34:09.600Z,95.77
2023-08-28T05:36:37.223Z,95.86
2023-08-28T05:39:04.332Z,96.09
2023-08-28T05:41:32.063Z,96.17
2023-08-28T05:43:58.912Z,96.15
2023-08-28T05:46:26.345Z,95.90
2023-08-28T05:48:53.142Z,96.27
2023-08-28T05:51:20.873Z,96.36
2023-08-28T05:53:48.498Z,96.44
2023-08-28T05:56:15.178Z,96.57
2023-08-28T05:58:41.802Z,96.45
2023-08-28T06:01:09.799Z,96.47
2023-08-28T06:03:37.526Z,96.87
2023-08-28T06:06:04.571Z,96.65
2023-08-28T06:08:31.438Z,96.77
2023-08-28T06:10:58.170Z,96.59
2023-08-28T06:13:25.114Z,96.62
2023-08-28T06:15:51.748Z,96.58
2023-08-28T06:18:18.516Z,96.53
2023-08-28T06:20:45.488Z,96.53
2023-08-28T06:23:12.227Z,96.77
2023-08-28T06:25:38.963Z,96.70
2023-08-28T06:28:05.893Z,96.73
2023-08-28T06:30:33.063Z,96.63
2023-08-28T06:33:02.823Z,96.82
2023-08-28T06:35:29.713Z,96.72
2023-08-28T06:37:56.387Z,96.71
2023-08-28T06:40:23.017Z,96.87
2023-08-28T06:42:49.758Z,96.68
2023-08-28T06:45:17.180Z,96.44
2023-08-28T06:47:44.109Z,96.61
2023-08-28T06:50:10.849Z,96.23
2023-08-28T06:52:37.557Z,96.38
2023-08-28T06:55:05.252Z,96.33
2023-08-28T06:57:32.399Z,96.18
2023-08-28T06:59:59.098Z,96.16
2023-08-28T07:02:25.829Z,96.03
2023-08-28T07:04:52.556Z,96.02
2023-08-28T07:07:19.128Z,95.98
2023-08-28T07:09:45.809Z,96.02
2023-08-28T07:12:12.465Z,95.93
2023-08-28T07:14:39.161Z,95.71
2023-08-28T07:17:05.894Z,95.28
2023-08-28T07:19:32.844Z,95.09
2023-08-28T07:22:00.912Z,95.24
2023-08-28T07:24:28.081Z,95.10
2023-08-28T07:26:54.759Z,95.42
2023-08-28T07:29:21.427Z,95.87
2023-08-28T07:31:48.059Z,95.75
2023-08-28T07:34:14.720Z,96.02
2023-08-28T07:36:41.408Z,96.20
2023-08-28T07:39:08.486Z,96.21
2023-08-28T07:41:35.139Z,96.41
2023-08-28T07:44:01.781Z,96.55
2023-08-28T07:46:28.978Z,97.02
2023-08-28T07:48:55.705Z,97.28
2023-08-28T07:51:22.435Z,97.20
2023-08-28T07:53:49.104Z,97.14
2023-08-28T07:56:15.804Z,97.42
2023-08-28T07:58:43.138Z,97.22
2023-08-28T08:01:11.828Z,97.30
2023-08-28T08:03:38.597Z,97.38
2023-08-28T08:06:10.075Z,97.48
2023-08-28T08:08:39.496Z,97.48
2023-08-28T08:11:06.184Z,97.60
2023-08-28T08:13:32.895Z,97.44
2023-08-28T08:15:59.626Z,97.57
2023-08-28T08:18:26.721Z,97.53
2023-08-28T08:20:53.345Z,97.82
2023-08-28T08:23:20.139Z,97.78
2023-08-28T08:25:46.896Z,97.78
2023-08-28T08:28:15.956Z,97.84
2023-08-28T08:30:42.897Z,97.85
2023-08-28T08:33:10.334Z,97.72
2023-08-28T08:35:37.214Z,97.71
2023-08-28T08:38:04.285Z,97.57
2023-08-28T08:40:32.533Z,97.80
2023-08-28T08:42:59.317Z,97.93
2023-08-28T08:45:29.917Z,97.90
2023-08-28T08:48:00.743Z,97.68
2023-08-28T08:50:29.353Z,97.84
2023-08-28T08:53:03.499Z,97.92
2023-08-28T08:55:33.393Z,97.49
2023-08-28T08:58:05.538Z,97.41
2023-08-28T09:00:39.173Z,97.40
2023-08-28T09:03:06.890Z,97.13
2023-08-28T09:05:35.107Z,97.04
2023-08-28T09:08:04.759Z,96.98
2023-08-28T09:10:33.292Z,96.85
2023-08-28T09:13:00.922Z,96.37
2023-08-28T09:15:27.841Z,96.41
2023-08-28T09:17:54.677Z,96.36
2023-08-28T09:20:22.511Z,96.48
2023-08-28T09:22:54.789Z,96.02
2023-08-28T09:25:23.660Z,96.07
2023-08-28T09:27:53.031Z,96.19
2023-08-28T09:30:31.776Z,96.10
2023-08-28T09:33:00.711Z,96.17
2023-08-28T09:35:28.751Z,96.06
2023-08-28T09:38:00.178Z,95.81
2023-08-28T09:40:32.597Z,96.15
2023-08-28T09:43:00.159Z,96.39
2023-08-28T09:45:33.987Z,96.26
2023-08-28T09:48:04.780Z,96.19
2023-08-28T09:50:33.827Z,96.06
2023-08-28T09:53:14.661Z,96.21
2023-08-28T09:55:52.866Z,95.82
2023-08-28T09:58:26.822Z,95.99
2023-08-28T10:00:56.427Z,95.89
2023-08-28T10:03:25.198Z,95.62
2023-08-28T10:05:53.722Z,95.75
2023-08-28T10:08:27.778Z,95.89
2023-08-28T10:10:57.274Z,95.81
2023-08-28T10:13:25.312Z,95.60
2023-08-28T10:16:17.790Z,95.74
2023-08-28T10:21:21.066Z,95.56
2023-08-28T10:23:50.458Z,95.25
2023-08-28T10:26:19.056Z,95.34
2023-08-28T10:28:47.454Z,95.44
2023-08-28T10:31:15.213Z,95.36
2023-08-28T10:33:43.024Z,95.33
2023-08-28T10:36:11.784Z,95.48
2023-08-28T10:38:54.737Z,95.27
2023-08-28T10:41:26.222Z,95.05
2023-08-28T10:43:54.794Z,94.70
2023-08-28T10:46:23.282Z,94.47
2023-08-28T10:49:04.371Z,94.72
2023-08-28T10:51:32.881Z,94.30
2023-08-28T10:54:03.837Z,94.38
2023-08-28T10:56:32.606Z,94.19
2023-08-28T10:59:18.146Z,94.07
2023-08-28T11:01:54.572Z,94.19
2023-08-28T11:04:33.832Z,94.40
2023-08-28T11:07:01.160Z,94.04
2023-08-28T11:09:28.196Z,93.95
2023-08-28T11:12:18.219Z,93.83
2023-08-28T11:14:54.955Z,93.70
2023-08-28T11:17:25.318Z,93.86
2023-08-28T11:19:53.740Z,93.46
2023-08-28T11:22:34.444Z,93.30
2023-08-28T11:25:13.471Z,93.39
2023-08-28T11:27:44.275Z,93.08
2023-08-28T11:30:12.857Z,92.96
2023-08-28T11:32:43.646Z,93.13
2023-08-28T11:35:13.788Z,92.94
2023-08-28T11:37:43.798Z,92.84
2023-08-28T11:40:11.318Z,92.62
2023-08-28T11:42:39.219Z,92.59
2023-08-28T11:45:07.365Z,92.50
2023-08-28T11:47:34.998Z,92.65
2023-08-28T11:50:06.330Z,92.30
2023-08-28T11:52:33.342Z,92.28
2023-08-28T11:55:04.098Z,92.13
2023-08-28T11:57:34.166Z,91.83
2023-08-28T12:00:04.771Z,91.68
2023-08-28T12:02:42.531Z,91.89
2023-08-28T12:05:10.625Z,91.79
2023-08-28T12:07:42.554Z,91.75
2023-08-28T12:10:10.664Z,91.89
2023-08-28T12:12:37.676Z,91.81
2023-08-28T12:15:04.913Z,91.74
2023-08-28T12:17:32.419Z,91.56
2023-08-28T12:19:59.517Z,91.71
2023-08-28T12:22:26.562Z,91.50
2023-08-28T12:24:58.338Z,91.87
2023-08-28T12:27:27.499Z,91.92
2023-08-28T12:29:58.289Z,91.58
2023-08-28T12:32:26.417Z,91.49
2023-08-28T12:34:54.039Z,91.50
2023-08-28T12:37:21.485Z,91.61
2023-08-28T12:39:52.022Z,91.56
2023-08-28T12:42:20.788Z,91.46
2023-08-28T12:44:48.167Z,91.54
2023-08-28T12:47:18.335Z,91.38
2023-08-28T12:49:45.384Z,91.45
2023-08-28T12:52:17.852Z,91.52
2023-08-28T12:54:47.749Z,91.57
2023-08-28T12:57:14.789Z,91.58
2023-08-28T12:59:45.796Z,91.62
2023-08-28T13:02:23.111Z,91.59
2023-08-28T13:04:53.030Z,91.40
2023-08-28T13:07:19.957Z,91.38
2023-08-28T13:09:47.032Z,91.38
2023-08-28T13:12:14.011Z,91.23
2023-08-28T13:14:41.251Z,91.06
2023-08-28T13:17:08.010Z,91.31
2023-08-28T13:19:35.289Z,91.16
2023-08-28T13:22:03.735Z,91.22
2023-08-28T13:24:42.943Z,91.13
2023-08-28T13:27:12.765Z,91.33
2023-08-28T13:29:39.503Z,91.42
2023-08-28T13:32:06.604Z,91.77
2023-08-28T13:34:33.621Z,91.50
2023-08-28T13:37:06.008Z,91.33
2023-08-28T13:39:33.266Z,91.43
2023-08-28T13:42:00.212Z,91.76
2023-08-28T13:44:27.532Z,91.77
2023-08-28T13:46:56.440Z,91.70
2023-08-28T13:49:23.203Z,92.03
2023-08-28T13:51:52.693Z,91.97
2023-08-28T13:54:19.362Z,92.34
2023-08-28T13:56:46.129Z,92.69
2023-08-28T13:59:12.983Z,92.50
2023-08-28T14:01:43.669Z,92.69
2023-08-28T14:04:12.000Z,93.34
2023-08-28T14:06:38.684Z,93.51
2023-08-28T14:09:05.413Z,93.74
2023-08-28T14:11:32.048Z,93.61
2023-08-28T14:13:58.842Z,93.98
2023-08-28T14:16:25.665Z,94.06
2023-08-28T14:18:57.046Z,94.47
2023-08-28T14:21:29.522Z,94.62
2023-08-28T14:23:56.313Z,94.83
2023-08-28T14:26:23.732Z,94.91
2023-08-28T14:28:50.549Z,95.14
2023-08-28T14:31:17.503Z,95.58
2023-08-28T14:33:45.490Z,95.60
2023-08-28T14:36:13.840Z,96.07
2023-08-28T14:38:41.182Z,96.19
2023-08-28T14:41:08.062Z,96.31
2023-08-28T14:43:34.807Z,96.66
2023-08-28T14:46:30.407Z,97.01
2023-08-28T14:48:57.159Z,96.52
2023-08-28T14:51:23.864Z,97.01
2023-08-28T14:53:51.169Z,97.22
2023-08-28T14:56:18.970Z,97.63
2023-08-28T14:58:45.629Z,97.50
2023-08-28T15:01:12.399Z,97.55
2023-08-28T15:03:40.744Z,97.92
2023-08-28T15:06:07.475Z,98.14
2023-08-28T15:08:34.104Z,98.06
2023-08-28T15:11:00.752Z,98.58
2023-08-28T15:13:27.536Z,98.54
2023-08-28T15:15:54.820Z,98.82
2023-08-28T15:18:21.417Z,99.11
2023-08-28T15:20:48.844Z,99.34
2023-08-28T15:23:15.734Z,99.54
2023-08-28T15:25:42.337Z,99.45
2023-08-28T15:28:09.401Z,99.52
2023-08-28T15:30:36.230Z,99.84
2023-08-28T15:33:03.555Z,99.90
2023-08-28T15:35:30.717Z,99.96
2023-08-28T15:37:59.545Z,100.00
2023-08-28T15:40:26.958Z,99.94
2023-08-28T15:42:55.399Z,100.00
2023-08-28T15:45:22.091Z,99.94
2023-08-28T15:47:49.784Z,100.00
2023-08-28T15:50:16.701Z,100.00
2023-08-28T15:52:43.543Z,100.00
2023-08-28T15:55:11.317Z,100.00
2023-08-28T15:57:39.731Z,100.00
2023-08-28T16:00:08.063Z,100.00
2023-08-28T16:02:35.208Z,100.00
2023-08-28T16:05:02.844Z,100.00
2023-08-28T16:07:29.614Z,100.00
2023-08-28T16:09:56.218Z,100.00
2023-08-28T16:12:22.980Z,100.00
2023-08-28T16:14:49.758Z,100.00
2023-08-28T16:17:16.880Z,100.00
2023-08-28T16:19:46.587Z,100.00
2023-08-28T16:22:13.252Z,100.00
2023-08-28T16:24:40.269Z,100.00
2023-08-28T16:27:07.056Z,100.00
2023-08-28T16:29:34.378Z,100.00
2023-08-28T16:32:01.927Z,100.00
2023-08-28T16:34:28.601Z,100.00
2023-08-28T16:36:55.370Z,100.00
2023-08-28T16:39:22.058Z,100.00
2023-08-28T16:41:48.713Z,100.00
2023-08-28T16:44:15.449Z,100.00
2023-08-28T16:46:42.261Z,100.00
2023-08-28T16:49:09.096Z,100.00
2023-08-28T16:51:35.734Z,100.00
2023-08-28T16:54:03.032Z,100.00
2023-08-28T16:56:30.341Z,100.00
2023-08-28T16:58:57.137Z,100.00
2023-08-28T17:01:23.880Z,100.00
2023-08-28T17:03:51.125Z,100.00
2023-08-28T17:06:17.852Z,100.00
2023-08-28T17:08:45.077Z,100.00
2023-08-28T17:11:11.869Z,100.00
2023-08-28T17:13:39.619Z,100.00
2023-08-28T17:16:06.409Z,100.00
2023-08-28T17:18:33.309Z,100.00
2023-08-28T17:21:00.008Z,100.00
2023-08-28T17:23:26.673Z,100.00
2023-08-28T17:25:53.266Z,100.00
2023-08-28T17:28:20.707Z,100.00
2023-08-28T17:30:47.479Z,100.00
2023-08-28T17:33:14.616Z,100.00
2023-08-28T17:35:41.699Z,100.00
2023-08-28T17:38:09.039Z,100.00
2023-08-28T17:40:42.696Z,100.00
2023-08-28T17:43:11.593Z,100.00
2023-08-28T17:45:42.440Z,100.00
2023-08-28T17:48:09.255Z,100.00
2023-08-28T17:50:37.165Z,100.00
2023-08-28T17:53:04.305Z,100.00
2023-08-28T17:55:32.114Z,100.00
2023-08-28T17:58:00.214Z,100.00
2023-08-28T18:00:27.979Z,100.00
2023-08-28T18:03:18.779Z,100.00
2023-08-28T18:05:43.002Z,100.00
2023-08-28T18:08:09.897Z,100.00
2023-08-28T18:10:36.685Z,100.00
2023-08-28T18:13:04.178Z,100.00
2023-08-28T18:15:31.398Z,100.00
2023-08-28T18:17:58.084Z,100.00
2023-08-28T18:20:24.872Z,100.00
2023-08-28T18:22:51.814Z,100.00
2023-08-28T18:25:18.960Z,100.00
2023-08-28T18:28:00.664Z,100.00
2023-08-28T18:30:33.064Z,100.00
2023-08-28T18:32:59.968Z,100.00
2023-08-28T18:35:27.510Z,100.00
2023-08-28T18:37:57.579Z,100.00
2023-08-28T18:40:31.550Z,100.00
2023-08-28T18:42:58.982Z,100.00
2023-08-28T18:45:28.335Z,100.00
2023-08-28T18:47:55.373Z,100.00
2023-08-28T18:50:23.153Z,100.00
2023-08-28T18:52:50.482Z,100.00
2023-08-28T18:55:31.935Z,100.00
2023-08-28T18:57:59.754Z,100.00
2023-08-28T19:00:28.842Z,100.00
2023-08-28T19:02:56.395Z,100.00
2023-08-28T19:05:25.404Z,100.00
2023-08-28T19:07:52.422Z,100.00
2023-08-28T19:10:19.321Z,100.00
2023-08-28T19:12:46.026Z,100.00
2023-08-28T19:15:12.836Z,100.00
2023-08-28T19:17:40.017Z,100.00
2023-08-28T19:20:07.645Z,100.00
2023-08-28T19:22:34.532Z,100.00
2023-08-28T19:25:02.090Z,100.00
2023-08-28T19:27:31.071Z,100.00
2023-08-28T19:29:58.285Z,100.00
2023-08-28T19:32:36.074Z,100.00
2023-08-28T19:35:07.418Z,100.00
2023-08-28T19:37:37.957Z,100.00
2023-08-28T19:40:08.855Z,100.00
2023-08-28T19:42:39.361Z,100.00
2023-08-28T19:45:07.745Z,100.00
2023-08-28T19:47:34.852Z,100.00
2023-08-28T19:50:03.574Z,100.00
2023-08-28T19:52:30.554Z,100.00
2023-08-28T19:54:57.343Z,100.00
2023-08-28T19:57:27.838Z,100.00
2023-08-28T19:59:55.461Z,100.00
2023-08-28T20:02:22.802Z,100.00
2023-08-28T20:04:49.599Z,100.00
2023-08-28T20:07:17.152Z,100.00
2023-08-28T20:09:44.196Z,100.00
2023-08-28T20:12:13.842Z,100.00
2023-08-28T20:14:42.131Z,100.00
2023-08-28T20:17:10.916Z,100.00
2023-08-28T20:19:37.896Z,100.00
2023-08-28T20:22:04.889Z,100.00
2023-08-28T20:24:33.061Z,100.00
2023-08-28T20:27:00.981Z,100.00
2023-08-28T20:29:29.305Z,100.00
2023-08-28T20:31:56.572Z,100.00
2023-08-28T20:34:23.521Z,100.00
2023-08-28T20:36:51.042Z,100.00
2023-08-28T20:39:17.835Z,100.00
2023-08-28T20:41:47.300Z,100.00
2023-08-28T20:44:14.213Z,100.00
2023-08-28T20:46:42.741Z,100.00
2023-08-28T20:49:13.946Z,100.00
2023-08-28T20:51:40.739Z,100.00
2023-08-28T20:54:07.597Z,100.00
2023-08-28T20:56:34.275Z,100.00
2023-08-28T20:59:00.928Z,100.00
2023-08-28T21:01:27.793Z,100.00
2023-08-28T21:03:54.623Z,100.00
2023-08-28T21:06:23.310Z,100.00
2023-08-28T21:08:49.887Z,100.00
2023-08-28T21:11:16.544Z,100.00
2023-08-28T21:13:43.287Z,100.00
2023-08-28T21:16:10.007Z,100.00
2023-08-28T21:18:37.308Z,100.00
2023-08-28T21:21:04.002Z,100.00
2023-08-28T21:23:31.149Z,100.00
2023-08-28T21:26:04.607Z,100.00
2023-08-28T21:28:31.380Z,100.00
2023-08-28T21:31:03.988Z,100.00
2023-08-28T21:33:32.765Z,100.00
2023-08-28T21:36:03.901Z,100.00
2023-08-28T21:38:52.233Z,100.00
2023-08-28T21:41:22.815Z,100.00
2023-08-28T21:43:49.959Z,100.00
2023-08-28T21:46:16.583Z,100.00
2023-08-28T21:48:43.358Z,100.00
2023-08-28T21:51:28.743Z,100.00
2023-08-28T21:54:14.894Z,100.00
2023-08-28T22:00:07.253Z,100.00
2023-08-28T22:02:52.843Z,100.00
2023-08-28T22:05:48.580Z,100.00
2023-08-28T22:08:17.868Z,100.00
2023-08-28T22:10:56.707Z,100.00
2023-08-28T22:13:46.085Z,100.00
2023-08-28T22:16:13.396Z,100.00
2023-08-28T22:18:40.013Z,100.00
2023-08-28T22:21:11.824Z,100.00
2023-08-28T22:23:38.495Z,100.00
2023-08-28T22:26:05.210Z,100.00
2023-08-28T22:28:32.005Z,100.00
2023-08-28T22:30:58.802Z,100.00
2023-08-28T22:33:25.590Z,100.00
2023-08-28T22:35:53.155Z,100.00
2023-08-28T22:38:19.982Z,100.00
2023-08-28T22:40:47.104Z,100.00
2023-08-28T22:43:13.719Z,100.00
2023-08-28T22:45:40.782Z,100.00
2023-08-28T22:48:07.818Z,100.00
2023-08-28T22:50:34.919Z,100.00
2023-08-28T22:53:01.611Z,100.00
2023-08-28T22:55:28.285Z,100.00
2023-08-28T22:57:54.912Z,100.00
2023-08-28T23:00:21.744Z,100.00
2023-08-28T23:02:48.708Z,100.00
2023-08-28T23:05:15.857Z,100.00
2023-08-28T23:07:42.501Z,100.00
2023-08-28T23:10:09.785Z,100.00
2023-08-28T23:12:36.836Z,100.00
2023-08-28T23:15:03.799Z,100.00
2023-08-28T23:17:30.423Z,100.00
2023-08-28T23:19:57.100Z,100.00
2023-08-28T23:22:23.785Z,100.00
2023-08-28T23:24:50.815Z,100.00
2023-08-28T23:27:17.559Z,100.00
2023-08-28T23:29:44.224Z,100.00
2023-08-28T23:32:11.572Z,100.00
2023-08-28T23:34:39.933Z,100.00
2023-08-28T23:37:09.444Z,100.00
2023-08-28T23:39:36.821Z,100.00
2023-08-28T23:42:04.318Z,100.00
2023-08-28T23:44:31.241Z,100.00
2023-08-28T23:46:57.913Z,100.00
2023-08-28T23:49:24.932Z,100.00
2023-08-28T23:51:51.711Z,100.00
2023-08-28T23:54:18.400Z,100.00
2023-08-28T23:56:45.025Z,100.00
2023-08-28T23:59:11.693Z,100.00
